WMKM/MKZ METAR and TAF weather

Enter ICAO airport designator
Station Type Date Time Source
WMKM METAR 2021/09/24 04:00 UTC NOAA

WMKM 240400Z 20006G16KT 160V250 9999 FEW018TCU SCT020 31/24 Q1011


Station Type Date Time Source
WMKM Decoded METAR 2021/09/24 04:00 UTC NOAA

Malacca, Malaysia (WMKM) 02-16N 102-15E 9M
Sep 24, 2021 - 12:00 AM EDT / 2021.09.24 0400 UTC
Wind: from the SSW (200 degrees) at 7 MPH (6 KT) gusting to 18 MPH (16 KT) (direction variable):0
Visibility: greater than 7 mile(s):0
Sky conditions: partly cloudy
Weather: Towering cumulus clouds observed
Temperature: 87 F (31 C)
Heat index: 95.7 F (35.4 C):1
Dew Point: 75 F (24 C)
Relative Humidity: 66%
Pressure (altimeter): 29.85 in. Hg (1011 hPa)
ob: WMKM 240400Z 20006G16KT 160V250 9999 FEW018TCU SCT020 31/24 Q1011
cycle: 4

Station Type Date Time Source
WMKM TAF 2021/09/24 06:00 UTC NOAA

TAF WMKM 240500Z 2406/2506 18006KT 9999 FEW020

Example: see airport list